Time;durP1;ratioP1;P1;durP2;ratioP2;P2;SDS_P1;SDS_P2;PMS_P1;PMS_P2;Temp;Humidity;BMP_temperature;BMP_pressure;BME280_temperature;BME280_humidity;BME280_pressure;Samples;Min_cycle;Max_cycle;Signal;HPM_P1;HPM_P2
2022/11/30 04:01:21;;;;;;;0.90;0.90;;;17.00;50.40;;;;;;5620490;22;46518;-67
2022/11/30 04:03:47;;;;;;;1.00;0.90;;;17.00;50.40;;;;;;4970216;28;46381;-60
2022/11/30 04:06:13;;;;;;;1.00;0.90;;;17.00;50.40;;;;;;4986750;28;45230;-70
2022/11/30 04:08:38;;;;;;;1.10;0.88;;;17.00;50.40;;;;;;4971239;28;45211;-68
2022/11/30 04:11:04;;;;;;;1.00;0.90;;;17.00;50.40;;;;;;5002902;28;45217;-69
2022/11/30 04:13:30;;;;;;;0.98;0.88;;;17.00;50.40;;;;;;4994585;28;45492;-64
2022/11/30 04:15:56;;;;;;;1.67;1.08;;;17.00;50.40;;;;;;4977340;28;44984;-68
2022/11/30 04:18:22;;;;;;;1.10;1.00;;;17.00;50.40;;;;;;4984687;28;45121;-70
2022/11/30 04:20:55;;;;;;;0.80;0.80;;;17.00;50.40;;;;;;4983313;28;45250;-66
2022/11/30 04:23:21;;;;;;;1.10;1.00;;;17.00;50.50;;;;;;4982932;28;47077;-64
2022/11/30 04:25:46;;;;;;;1.05;0.98;;;16.90;50.40;;;;;;5004069;28;45249;-65
2022/11/30 04:28:12;;;;;;;0.93;0.85;;;16.90;50.40;;;;;;4987464;28;45618;-67
2022/11/30 04:30:38;;;;;;;0.80;0.80;;;16.90;50.40;;;;;;5000190;28;45659;-71
2022/11/30 04:33:04;;;;;;;1.23;0.90;;;16.90;50.40;;;;;;5006514;28;45305;-65
2022/11/30 04:35:30;;;;;;;0.90;0.90;;;16.90;50.50;;;;;;5008302;28;44700;-63
2022/11/30 04:37:55;;;;;;;1.02;0.90;;;16.90;50.50;;;;;;4985236;28;45479;-66
2022/11/30 04:40:21;;;;;;;1.23;0.82;;;16.90;50.50;;;;;;4988631;28;45231;-67
2022/11/30 04:42:46;;;;;;;1.17;1.00;;;16.90;50.50;;;;;;4980766;28;47182;-72
2022/11/30 04:45:12;;;;;;;1.02;0.93;;;16.90;50.50;;;;;;4981338;28;45214;-70
2022/11/30 04:47:38;;;;;;;0.90;0.90;;;16.90;50.50;;;;;;4984837;28;45518;-68
2022/11/30 04:50:04;;;;;;;1.27;0.98;;;16.90;50.50;;;;;;4987998;28;45871;-68
2022/11/30 04:52:30;;;;;;;0.80;0.70;;;16.90;50.50;;;;;;4967192;28;47036;-70
2022/11/30 04:54:55;;;;;;;1.02;0.93;;;16.90;50.50;;;;;;5002646;28;44969;-67
2022/11/30 04:57:22;;;;;;;0.85;0.85;;;16.80;50.50;;;;;;4991068;28;45566;-64
2022/11/30 04:59:47;;;;;;;1.08;0.73;;;16.80;50.50;;;;;;4991063;28;45581;-65
2022/11/30 05:02:13;;;;;;;1.20;0.90;;;16.80;50.50;;;;;;4985824;28;45840;-65
2022/11/30 05:04:38;;;;;;;1.00;0.90;;;16.80;50.50;;;;;;4991775;28;45348;-65
2022/11/30 05:07:04;;;;;;;1.23;1.10;;;16.80;50.50;;;;;;5006280;28;45182;-64
2022/11/30 05:09:30;;;;;;;1.48;1.00;;;16.80;50.60;;;;;;5007030;28;45476;-69
2022/11/30 05:11:56;;;;;;;0.80;0.80;;;16.80;50.50;;;;;;4990646;28;45246;-66
2022/11/30 05:14:21;;;;;;;;;;;16.80;50.50;;;;;;4985235;28;45446;-67
2022/11/30 05:16:47;;;;;;;;;;;16.80;50.70;;;;;;5004305;28;45150;-69
2022/11/30 05:19:13;;;;;;;;;;;16.80;50.80;;;;;;5006370;28;44991;-68
2022/11/30 05:21:39;;;;;;;;;;;16.70;50.80;;;;;;5000081;28;45508;-64
2022/11/30 05:24:05;;;;;;;;;;;16.70;50.80;;;;;;5005074;28;45195;-67
2022/11/30 05:26:30;;;;;;;;;;;16.70;50.80;;;;;;4978820;28;46079;-66
2022/11/30 05:28:55;;;;;;;;;;;16.70;50.80;;;;;;4982085;28;45441;-67
2022/11/30 05:31:21;;;;;;;;;;;16.70;50.80;;;;;;5006875;28;45600;-64
2022/11/30 05:33:50;;;;;;;;;;;16.70;50.90;;;;;;5007807;28;45227;-70
2022/11/30 05:36:15;;;;;;;;;;;16.70;50.90;;;;;;5005619;28;45419;-69
2022/11/30 05:38:41;;;;;;;;;;;16.60;50.90;;;;;;5002519;28;45597;-64
2022/11/30 05:41:06;;;;;;;;;;;16.60;50.90;;;;;;5001586;28;45981;-61
2022/11/30 05:43:32;;;;;;;;;;;16.60;50.90;;;;;;5001377;28;45159;-65
2022/11/30 05:45:58;;;;;;;;;;;16.60;50.90;;;;;;4982725;28;45279;-65
2022/11/30 05:48:23;;;;;;;;;;;16.60;50.90;;;;;;5005907;28;45660;-68
2022/11/30 05:50:49;;;;;;;;;;;16.60;50.90;;;;;;5002319;28;45317;-68
2022/11/30 05:53:14;;;;;;;;;;;16.60;50.90;;;;;;5001299;28;45523;-69
2022/11/30 05:55:40;;;;;;;;;;;16.60;51.00;;;;;;5000811;28;45216;-69
2022/11/30 05:58:06;;;;;;;;;;;16.60;51.00;;;;;;4977132;28;45245;-63
2022/11/30 06:00:31;;;;;;;;;;;16.60;50.90;;;;;;5003482;28;45789;-67
2022/11/30 06:02:57;;;;;;;;;;;16.60;50.90;;;;;;4994395;28;45325;-64
2022/11/30 06:05:22;;;;;;;;;;;16.60;50.90;;;;;;4986678;28;44815;-68
2022/11/30 06:07:48;;;;;;;;;;;16.60;51.00;;;;;;5008790;28;45282;-66
2022/11/30 06:10:14;;;;;;;;;;;16.50;50.90;;;;;;5003970;28;45431;-66
2022/11/30 06:12:39;;;;;;;;;;;16.50;50.90;;;;;;5003793;28;45784;-66
2022/11/30 06:15:05;;;;;;;;;;;16.50;51.00;;;;;;5004733;28;45182;-68
2022/11/30 06:17:30;;;;;;;;;;;16.50;51.00;;;;;;4979607;28;45580;-68
2022/11/30 06:19:56;;;;;;;;;;;16.50;51.00;;;;;;4995258;28;45582;-66
2022/11/30 06:22:21;;;;;;;;;;;16.50;51.00;;;;;;4986098;28;45605;-59
2022/11/30 06:24:47;;;;;;;;;;;16.50;51.00;;;;;;4992000;28;45418;-68
2022/11/30 06:27:12;;;;;;;;;;;16.60;50.80;;;;;;5007852;28;45498;-68
2022/11/30 06:29:37;;;;;;;;;;;16.80;50.60;;;;;;5005568;28;45296;-64
2022/11/30 06:32:05;;;;;;;;;;;16.90;50.30;;;;;;4975086;28;45540;-70
2022/11/30 06:34:31;;;;;;;;;;;17.10;50.10;;;;;;4996132;28;45237;-70
2022/11/30 06:36:56;;;;;;;;;;;17.20;49.80;;;;;;5007677;28;45169;-67
2022/11/30 06:39:22;;;;;;;;;;;17.40;49.70;;;;;;4965093;28;46737;-65
2022/11/30 06:41:48;;;;;;;;;;;17.50;49.50;;;;;;5009079;28;45522;-63
2022/11/30 06:44:13;;;;;;;;;;;17.60;49.30;;;;;;5020347;28;45191;-67
2022/11/30 06:46:38;;;;;;;;;;;17.70;49.10;;;;;;5002636;28;45570;-66
2022/11/30 06:49:05;;;;;;;;;;;17.80;48.90;;;;;;4998845;28;45376;-67
2022/11/30 06:51:30;;;;;;;;;;;17.90;48.80;;;;;;5008879;28;46276;-67
2022/11/30 06:53:56;;;;;;;;;;;18.00;48.70;;;;;;5015766;28;45064;-66
2022/11/30 06:56:21;;;;;;;;;;;18.00;48.60;;;;;;4984399;28;44905;-69
2022/11/30 06:58:47;;;;;;;0.70;0.70;;;18.00;48.70;;;;;;4992305;28;46693;-59
2022/11/30 07:01:14;;;;;;;0.82;0.80;;;18.00;48.80;;;;;;4976016;28;45589;-65
2022/11/30 07:03:40;;;;;;;0.88;0.68;;;18.10;49.40;;;;;;4960501;28;45616;-60
2022/11/30 07:06:07;;;;;;;1.05;0.90;;;18.30;48.70;;;;;;4962818;28;45733;-64
2022/11/30 07:08:32;;;;;;;3.63;1.02;;;18.40;48.50;;;;;;4967784;28;45368;-63
2022/11/30 07:10:58;;;;;;;1.50;0.90;;;18.50;48.30;;;;;;4954903;28;45605;-65
2022/11/30 07:13:23;;;;;;;0.75;0.75;;;18.70;48.20;;;;;;4960652;28;46151;-65
2022/11/30 07:15:49;;;;;;;0.98;0.88;;;18.80;48.00;;;;;;4967812;28;45209;-62
2022/11/30 07:18:14;;;;;;;0.68;0.68;;;19.00;47.90;;;;;;4968952;28;45602;-62
2022/11/30 07:20:40;;;;;;;1.07;0.97;;;19.10;47.80;;;;;;4953686;28;45643;-65
2022/11/30 07:26:05;;;;;;;0.77;0.77;;;19.50;47.50;;;;;;4966009;28;45030;-63
2022/11/30 07:28:35;;;;;;;0.80;0.80;;;19.70;47.30;;;;;;4945461;28;45536;-60
2022/11/30 07:31:11;;;;;;;1.00;1.00;;;19.80;47.00;;;;;;4947203;28;45429;-61
2022/11/30 07:33:36;;;;;;;1.20;1.10;;;20.10;46.70;;;;;;4962601;28;45447;-61
2022/11/30 07:36:02;;;;;;;0.80;0.80;;;20.30;46.40;;;;;;4966386;28;45669;-62
2022/11/30 07:38:27;;;;;;;1.10;1.00;;;20.50;46.20;;;;;;4960665;28;45680;-59
2022/11/30 07:40:53;;;;;;;1.00;0.90;;;20.60;45.80;;;;;;4962474;28;45398;-55
2022/11/30 07:43:18;;;;;;;1.13;1.03;;;20.70;45.70;;;;;;4960557;28;45136;-57
2022/11/30 07:45:50;;;;;;;1.13;1.03;;;20.80;45.40;;;;;;4959818;28;45318;-55
2022/11/30 07:48:16;;;;;;;1.10;1.00;;;20.90;45.10;;;;;;4955190;28;45407;-56
2022/11/30 07:50:41;;;;;;;1.20;0.90;;;21.00;44.80;;;;;;4965874;28;45228;-55
2022/11/30 07:53:07;;;;;;;1.10;1.00;;;21.00;44.80;;;;;;4960370;28;45649;-53
2022/11/30 07:55:32;;;;;;;1.00;0.90;;;21.10;44.80;;;;;;4960237;28;45624;-57
2022/11/30 07:57:58;;;;;;;1.20;1.03;;;21.20;44.70;;;;;;4962571;28;46317;-57
2022/11/30 08:00:24;;;;;;;1.27;0.93;;;21.30;44.50;;;;;;4966051;28;45680;-54
2022/11/30 08:02:50;;;;;;;1.20;0.83;;;21.50;44.40;;;;;;5001074;28;45651;-57
2022/11/30 08:05:15;;;;;;;0.95;0.90;;;21.60;44.20;;;;;;4989647;28;45288;-56
2022/11/30 08:07:44;;;;;;;0.90;0.90;;;21.70;44.00;;;;;;4996164;28;47615;-52
2022/11/30 08:10:10;;;;;;;1.50;0.90;;;21.80;43.80;;;;;;4978506;28;45223;-57
2022/11/30 08:12:36;;;;;;;0.95;0.85;;;21.90;44.20;;;;;;5001324;28;45389;-61
2022/11/30 08:15:01;;;;;;;1.00;0.90;;;22.10;43.50;;;;;;4984653;28;45394;-55
2022/11/30 08:17:27;;;;;;;1.17;1.08;;;22.20;43.40;;;;;;5000793;28;45435;-53
2022/11/30 08:19:52;;;;;;;1.23;1.10;;;22.30;43.20;;;;;;5002343;28;45354;-57
2022/11/30 08:22:18;;;;;;;1.00;0.90;;;22.40;43.00;;;;;;5000289;28;44720;-57
2022/11/30 08:24:43;;;;;;;1.05;0.80;;;22.50;42.90;;;;;;5001703;28;45758;-53
2022/11/30 08:27:09;;;;;;;1.40;1.00;;;22.60;42.80;;;;;;4999954;28;46773;-56
2022/11/30 08:29:34;;;;;;;1.02;0.93;;;22.70;42.60;;;;;;5003465;28;45438;-53
2022/11/30 08:32:00;;;;;;;2.30;1.00;;;22.80;42.60;;;;;;5007417;28;44901;-54
2022/11/30 08:34:25;;;;;;;1.00;0.90;;;22.80;42.40;;;;;;4986659;28;45166;-57
2022/11/30 08:36:51;;;;;;;0.93;0.90;;;23.00;42.40;;;;;;4994862;28;45600;-55
2022/11/30 08:39:16;;;;;;;0.95;0.85;;;23.00;42.20;;;;;;5000083;28;45284;-57
2022/11/30 08:41:42;;;;;;;0.90;0.90;;;23.10;42.20;;;;;;5019426;28;45079;-50
2022/11/30 08:44:08;;;;;;;1.67;1.15;;;23.20;42.10;;;;;;5005517;28;45450;-52
2022/11/30 08:46:33;;;;;;;1.02;0.98;;;23.30;42.00;;;;;;5003040;28;46250;-54
2022/11/30 08:48:59;;;;;;;1.00;0.90;;;23.30;41.90;;;;;;5007745;28;45231;-54
2022/11/30 08:51:24;;;;;;;1.10;1.00;;;23.40;41.80;;;;;;5003265;28;46499;-52
2022/11/30 08:53:50;;;;;;;0.97;0.90;;;23.50;41.70;;;;;;5001744;28;45500;-55
2022/11/30 08:56:17;;;;;;;0.90;0.90;;;23.50;41.60;;;;;;4998385;28;45319;-58
2022/11/30 08:58:43;;;;;;;0.80;0.80;;;23.60;41.60;;;;;;4996976;28;45513;-55
2022/11/30 09:01:12;;;;;;;1.10;1.00;;;23.70;41.50;;;;;;5008593;28;45193;-54
2022/11/30 09:03:38;;;;;;;1.13;1.00;;;23.70;41.40;;;;;;4996416;28;45562;-53
2022/11/30 09:06:09;;;;;;;1.20;1.10;;;23.80;41.30;;;;;;4980506;28;45880;-55
2022/11/30 09:08:35;;;;;;;0.93;0.90;;;23.90;41.30;;;;;;4992578;28;45097;-52
2022/11/30 09:11:11;;;;;;;1.50;1.10;;;23.90;41.20;;;;;;5005542;28;45293;-55
2022/11/30 09:13:36;;;;;;;1.30;1.20;;;23.90;41.00;;;;;;5006504;28;45473;-53
2022/11/30 09:16:02;;;;;;;1.20;1.10;;;23.90;41.00;;;;;;4979127;28;46304;-56
2022/11/30 09:18:28;;;;;;;1.30;1.02;;;23.80;41.00;;;;;;4982426;28;45113;-53
2022/11/30 09:20:59;;;;;;;1.30;1.10;;;23.80;41.10;;;;;;5005918;28;45370;-58
2022/11/30 09:23:25;;;;;;;1.30;1.20;;;23.80;41.20;;;;;;4987923;28;45494;-50
2022/11/30 09:25:57;;;;;;;1.08;0.98;;;23.80;41.10;;;;;;5006978;28;46254;-52
2022/11/30 09:28:23;;;;;;;0.93;0.80;;;23.90;41.10;;;;;;4998032;28;45075;-58
2022/11/30 09:30:49;;;;;;;1.30;1.05;;;24.00;41.10;;;;;;5012986;28;45416;-53
2022/11/30 09:33:14;;;;;;;1.45;1.10;;;24.10;41.00;;;;;;5011083;28;44914;-53
2022/11/30 09:35:40;;;;;;;1.00;0.90;;;24.10;40.90;;;;;;4998157;28;45249;-54
2022/11/30 09:38:05;;;;;;;1.10;1.00;;;24.10;40.90;;;;;;5004123;28;45523;-56
2022/11/30 09:40:31;;;;;;;0.98;0.90;;;24.20;40.80;;;;;;5001665;28;44711;-53
2022/11/30 09:43:13;;;;;;;1.48;1.30;;;24.30;40.90;;;;;;4968483;28;45389;-52
2022/11/30 09:45:38;;;;;;;1.10;1.00;;;24.30;40.80;;;;;;4994837;28;45610;-54
2022/11/30 09:48:24;;;;;;;1.20;1.10;;;24.40;40.70;;;;;;4969627;28;45715;-58
2022/11/30 09:50:49;;;;;;;1.13;1.02;;;24.40;40.70;;;;;;4980440;28;45509;-56
2022/11/30 09:53:26;;;;;;;1.30;1.20;;;24.50;40.60;;;;;;4998759;28;46115;-57
2022/11/30 09:55:51;;;;;;;1.30;1.00;;;24.50;40.50;;;;;;4971623;28;45441;-60
2022/11/30 09:58:29;;;;;;;1.05;0.95;;;24.60;40.50;;;;;;4975115;28;45552;-54
2022/11/30 10:00:55;;;;;;;1.23;1.10;;;24.60;40.50;;;;;;4985844;28;45216;-54
2022/11/30 10:03:21;;;;;;;1.17;1.07;;;24.70;40.40;;;;;;4970696;28;44827;-56
2022/11/30 10:05:58;;;;;;;1.30;1.20;;;24.70;40.30;;;;;;4978669;28;45551;-51
2022/11/30 10:08:31;;;;;;;1.25;1.10;;;24.80;40.30;;;;;;4987656;28;44722;-54
2022/11/30 10:11:18;;;;;;;1.30;1.00;;;24.80;40.30;;;;;;4987823;28;45306;-56
2022/11/30 10:13:59;;;;;;;1.10;1.00;;;24.80;40.10;;;;;;4991474;28;45678;-56
2022/11/30 10:16:44;;;;;;;1.70;1.30;;;24.90;40.20;;;;;;4975898;28;46435;-55
2022/11/30 10:19:15;;;;;;;1.45;1.30;;;25.00;40.10;;;;;;5000723;28;45398;-55
2022/11/30 10:22:10;;;;;;;1.20;1.10;;;25.00;40.10;;;;;;5000060;28;45373;-57
2022/11/30 10:25:03;;;;;;;1.80;1.20;;;25.00;40.10;;;;;;4976866;28;45087;-53
2022/11/30 10:27:49;;;;;;;1.30;1.20;;;25.00;40.00;;;;;;4999070;28;46482;-57
2022/11/30 10:30:21;;;;;;;2.00;1.20;;;25.00;40.00;;;;;;4998650;28;44999;-53
2022/11/30 10:32:49;;;;;;;1.20;1.10;;;25.00;40.00;;;;;;5008377;28;45451;-52
2022/11/30 10:35:34;;;;;;;1.40;1.30;;;25.00;40.00;;;;;;4988816;28;45382;-53
2022/11/30 10:38:04;;;;;;;1.40;1.30;;;25.10;40.00;;;;;;4998063;28;45213;-56
2022/11/30 10:40:36;;;;;;;1.35;1.23;;;25.10;39.90;;;;;;4963615;28;45415;-57
2022/11/30 10:43:16;;;;;;;1.58;1.38;;;25.10;39.90;;;;;;4985770;28;45518;-53
2022/11/30 10:45:48;;;;;;;1.30;1.20;;;25.20;40.00;;;;;;4996799;28;44824;-58
2022/11/30 10:48:33;;;;;;;1.40;1.30;;;25.20;39.90;;;;;;4991996;28;46997;-53
2022/11/30 10:50:58;;;;;;;1.13;1.03;;;25.20;39.90;;;;;;4984910;28;45402;-58
2022/11/30 10:53:24;;;;;;;1.30;1.20;;;25.20;39.90;;;;;;4961033;28;45045;-59
2022/11/30 10:55:53;;;;;;;1.40;1.30;;;25.20;39.90;;;;;;4963505;28;45767;-54
2022/11/30 10:58:25;;;;;;;1.52;1.40;;;25.30;39.90;;;;;;5003114;28;46312;-59
2022/11/30 11:01:08;;;;;;;1.60;1.23;;;25.20;39.80;;;;;;4990651;28;44712;-55
2022/11/30 11:03:34;;;;;;;1.42;1.00;;;25.00;40.50;;;;;;4991005;28;44682;-56
2022/11/30 11:06:08;;;;;;;1.38;0.98;;;24.80;40.90;;;;;;4991257;28;45099;-57
2022/11/30 11:08:34;;;;;;;0.77;0.77;;;24.70;41.00;;;;;;4987034;28;46833;-53
2022/11/30 11:11:00;;;;;;;1.35;1.20;;;24.70;41.10;;;;;;5009909;28;45161;-58
2022/11/30 11:13:42;;;;;;;1.58;1.35;;;24.70;41.20;;;;;;5002330;28;45443;-62
2022/11/30 11:16:09;;;;;;;1.10;1.00;;;24.70;41.20;;;;;;5000088;28;44905;-60
2022/11/30 11:18:35;;;;;;;1.05;0.95;;;24.60;41.30;;;;;;4995716;28;45527;-56
2022/11/30 11:21:06;;;;;;;3.40;1.20;;;24.60;42.00;;;;;;5017763;28;44826;-50
2022/11/30 11:23:38;;;;;;;1.42;1.30;;;24.50;41.30;;;;;;4970022;28;45383;-52
2022/11/30 11:26:07;;;;;;;1.07;0.97;;;24.50;41.40;;;;;;4999073;28;45569;-58
2022/11/30 11:28:36;;;;;;;0.73;0.73;;;24.50;41.50;;;;;;4975964;28;45235;-57
2022/11/30 11:31:24;;;;;;;1.30;1.10;;;24.50;41.50;;;;;;4970543;28;45190;-54
2022/11/30 11:33:52;;;;;;;1.17;1.00;;;24.40;41.50;;;;;;5001389;28;44840;-51
2022/11/30 11:36:26;;;;;;;2.13;1.20;;;24.50;41.60;;;;;;4997980;28;45249;-54
2022/11/30 11:38:52;;;;;;;1.10;1.00;;;24.50;41.50;;;;;;5004173;28;46130;-54
2022/11/30 11:41:30;;;;;;;1.08;0.98;;;24.40;41.60;;;;;;4990049;28;44763;-54
2022/11/30 11:44:00;;;;;;;1.23;1.10;;;24.40;41.50;;;;;;4981394;28;44909;-61
2022/11/30 11:46:26;;;;;;;1.17;1.08;;;24.30;41.60;;;;;;4985934;28;44690;-52
2022/11/30 11:49:07;;;;;;;1.45;1.13;;;24.10;41.60;;;;;;5004738;28;45959;-53
2022/11/30 11:51:34;;;;;;;1.67;1.40;;;24.10;41.90;;;;;;4987858;28;45187;-54
2022/11/30 11:54:13;;;;;;;2.08;1.40;;;24.00;42.00;;;;;;4991195;28;45281;-55
2022/11/30 11:56:38;;;;;;;1.63;1.40;;;24.10;42.10;;;;;;4991143;28;45289;-56
2022/11/30 11:59:28;;;;;;;1.20;1.10;;;24.10;42.10;;;;;;5002842;28;45202;-52
2022/11/30 12:02:26;;;;;;;1.42;1.08;;;24.10;42.00;;;;;;4983817;28;44724;-56
2022/11/30 12:04:58;;;;;;;3.53;1.10;;;24.20;42.00;;;;;;4990134;28;45255;-58
2022/11/30 12:07:58;;;;;;;1.40;1.30;;;24.20;41.90;;;;;;5011480;28;45157;-53
2022/11/30 12:10:28;;;;;;;1.20;1.10;;;24.30;41.90;;;;;;5002959;28;45357;-56
2022/11/30 12:12:54;;;;;;;1.55;1.33;;;24.40;41.90;;;;;;4977953;28;45198;-55
2022/11/30 12:15:37;;;;;;;1.33;1.10;;;24.40;41.80;;;;;;5007764;28;45374;-58
2022/11/30 12:18:07;;;;;;;1.75;1.30;;;24.40;41.80;;;;;;4972123;28;45184;-54
2022/11/30 12:20:54;;;;;;;1.48;1.05;;;24.50;41.80;;;;;;4989380;28;46415;-56
2022/11/30 12:23:24;;;;;;;1.27;1.00;;;24.50;41.80;;;;;;5010645;28;46309;-49
2022/11/30 12:25:54;;;;;;;1.10;1.00;;;24.50;41.70;;;;;;4992974;28;45295;-52
2022/11/30 12:28:31;;;;;;;1.73;1.40;;;24.50;41.70;;;;;;4985407;28;45558;-53
2022/11/30 12:31:16;;;;;;;1.30;1.20;;;24.50;41.80;;;;;;4966753;28;45545;-63
2022/11/30 12:34:11;;;;;;;4.00;1.50;;;24.60;41.80;;;;;;5001026;28;45136;-51
2022/11/30 12:37:03;;;;;;;1.52;1.25;;;24.60;41.80;;;;;;4984409;28;45167;-54
2022/11/30 12:39:37;;;;;;;1.88;1.30;;;24.60;41.80;;;;;;4986780;28;45373;-63
2022/11/30 12:42:09;;;;;;;1.55;1.13;;;24.60;41.80;;;;;;4978283;28;46559;-56
2022/11/30 12:44:45;;;;;;;1.20;1.10;;;24.60;41.90;;;;;;4996000;28;45272;-57
2022/11/30 12:47:19;;;;;;;1.15;1.05;;;24.60;41.90;;;;;;5004995;28;45061;-60
2022/11/30 12:50:07;;;;;;;1.60;1.10;;;24.60;42.00;;;;;;4999529;28;45093;-53
2022/11/30 12:52:38;;;;;;;1.25;1.15;;;24.60;41.90;;;;;;5015041;28;45554;-56
2022/11/30 12:55:15;;;;;;;1.75;1.35;;;24.60;42.00;;;;;;5015142;28;45175;-54
2022/11/30 12:58:18;;;;;;;1.20;1.10;;;24.50;41.90;;;;;;5002122;28;45110;-54
2022/11/30 13:00:58;;;;;;;1.20;1.10;;;24.50;42.50;;;;;;4984992;28;44841;-56
2022/11/30 13:03:33;;;;;;;2.03;1.10;;;24.50;41.90;;;;;;4982670;28;46348;-55
2022/11/30 13:05:59;;;;;;;1.63;1.38;;;24.60;42.10;;;;;;5014182;28;44728;-53
2022/11/30 13:08:41;;;;;;;1.55;1.40;;;24.60;42.00;;;;;;5011030;28;45748;-51
2022/11/30 13:11:10;;;;;;;1.35;1.23;;;24.70;42.00;;;;;;4966473;28;45578;-59
2022/11/30 13:13:36;;;;;;;1.50;1.10;;;24.70;42.00;;;;;;4979014;28;45284;-52
2022/11/30 13:16:03;;;;;;;1.20;1.10;;;24.70;41.90;;;;;;4988536;28;45309;-55
2022/11/30 13:18:33;;;;;;;1.45;1.33;;;24.70;41.90;;;;;;4993389;28;45121;-52
2022/11/30 13:21:08;;;;;;;1.50;1.25;;;24.80;42.00;;;;;;5001248;28;45534;-56
2022/11/30 13:23:38;;;;;;;1.50;1.23;;;24.80;42.00;;;;;;4985156;28;45351;-55
2022/11/30 13:26:29;;;;;;;1.40;1.30;;;24.80;41.90;;;;;;4986408;28;45293;-56
2022/11/30 13:29:23;;;;;;;2.40;1.48;;;24.80;41.80;;;;;;4987867;28;44905;-57
2022/11/30 13:32:15;;;;;;;1.40;1.30;;;24.80;41.70;;;;;;4972658;28;45739;-54
2022/11/30 13:34:41;;;;;;;2.85;1.33;;;24.80;41.80;;;;;;4995219;28;46094;-54
2022/11/30 13:37:12;;;;;;;1.30;1.20;;;24.80;41.90;;;;;;5004658;28;45208;-57
2022/11/30 13:39:48;;;;;;;1.80;1.30;;;24.80;41.90;;;;;;5017475;28;44792;-53
2022/11/30 13:42:28;;;;;;;1.63;1.23;;;24.80;41.90;;;;;;4987625;28;45257;-55
2022/11/30 13:44:54;;;;;;;1.30;1.20;;;24.80;41.90;;;;;;5003154;28;46301;-52
2022/11/30 13:47:30;;;;;;;1.50;1.20;;;24.80;42.00;;;;;;5008792;28;45366;-60
2022/11/30 13:50:00;;;;;;;1.40;1.30;;;24.80;41.90;;;;;;4977852;28;45076;-58
2022/11/30 13:52:57;;;;;;;1.45;1.13;;;24.80;42.00;;;;;;5002697;28;45399;-52
2022/11/30 13:55:35;;;;;;;1.58;1.20;;;24.80;41.90;;;;;;5005728;28;46407;-52
2022/11/30 13:58:00;;;;;;;2.03;1.30;;;24.80;42.00;;;;;;4989631;28;45259;-56
2022/11/30 14:00:29;;;;;;;1.58;1.40;;;24.80;42.10;;;;;;5010728;28;45325;-52
2022/11/30 14:02:56;;;;;;;1.65;1.20;;;24.80;42.00;;;;;;5008232;28;45390;-54
2022/11/30 14:05:36;;;;;;;1.65;1.55;;;24.80;42.10;;;;;;4992326;28;45607;-50
2022/11/30 14:08:02;;;;;;;1.38;1.27;;;24.80;42.00;;;;;;5020387;28;45436;-54
2022/11/30 14:10:28;;;;;;;1.60;1.30;;;24.80;42.10;;;;;;5009862;28;45496;-54
2022/11/30 14:13:06;;;;;;;1.60;1.42;;;24.80;42.10;;;;;;5006351;28;45502;-55
2022/11/30 14:15:38;;;;;;;1.33;1.23;;;24.90;42.00;;;;;;5003476;28;46336;-50
2022/11/30 14:18:18;;;;;;;1.33;1.23;;;24.90;42.00;;;;;;5019469;28;45210;-54
2022/11/30 14:21:00;;;;;;;1.80;1.70;;;24.90;41.90;;;;;;5006645;28;44877;-55
2022/11/30 14:23:30;;;;;;;1.52;1.35;;;24.90;41.90;;;;;;4995893;28;45462;-55
2022/11/30 14:25:59;;;;;;;1.50;1.40;;;25.00;42.00;;;;;;5008213;28;45435;-56
2022/11/30 14:28:34;;;;;;;1.80;1.50;;;25.00;42.00;;;;;;4994746;28;45260;-52
2022/11/30 14:31:00;;;;;;;1.30;1.08;;;25.00;41.90;;;;;;4999772;28;45127;-54
2022/11/30 14:34:04;;;;;;;1.80;1.38;;;25.00;42.00;;;;;;4997528;28;45192;-54
2022/11/30 14:36:34;;;;;;;1.70;1.50;;;25.00;41.80;;;;;;4935995;28;46558;-52
2022/11/30 14:39:00;;;;;;;1.38;1.17;;;25.10;42.00;;;;;;4993705;28;45534;-53
2022/11/30 14:41:27;;;;;;;1.85;1.27;;;25.00;42.00;;;;;;4977168;28;44814;-54
2022/11/30 14:44:02;;;;;;;1.80;1.40;;;25.00;41.90;;;;;;4979095;28;45404;-53
2022/11/30 14:46:28;;;;;;;1.40;1.30;;;25.00;41.90;;;;;;5010009;28;45197;-54
2022/11/30 14:49:14;;;;;;;1.60;1.50;;;25.00;42.00;;;;;;5004579;28;45321;-55
2022/11/30 14:51:50;;;;;;;1.52;1.30;;;25.00;41.90;;;;;;4987536;28;45297;-52
2022/11/30 14:54:48;;;;;;;2.17;1.40;;;25.00;42.00;;;;;;5009455;28;45407;-54
2022/11/30 14:57:35;;;;;;;1.75;1.50;;;25.00;42.00;;;;;;4982149;28;45615;-58
2022/11/30 15:00:01;;;;;;;3.42;1.38;;;25.00;42.00;;;;;;4991283;28;44677;-54
2022/11/30 15:02:33;;;;;;;1.45;1.25;;;25.00;42.10;;;;;;4994130;28;45176;-51
2022/11/30 15:04:59;;;;;;;2.10;1.50;;;25.00;42.10;;;;;;4976345;28;45224;-58
2022/11/30 15:07:24;;;;;;;1.80;1.33;;;25.00;42.10;;;;;;4972122;28;45160;-53
2022/11/30 15:09:53;;;;;;;1.67;1.40;;;25.00;42.10;;;;;;4971460;28;45424;-55
2022/11/30 15:12:20;;;;;;;2.20;1.90;;;25.00;42.10;;;;;;4982896;28;45175;-58
2022/11/30 15:15:13;;;;;;;2.30;1.80;;;25.00;42.10;;;;;;4995330;28;44780;-56
2022/11/30 15:17:56;;;;;;;1.35;1.25;;;25.00;41.90;;;;;;5008191;28;46489;-54
2022/11/30 15:20:30;;;;;;;1.60;1.35;;;24.90;42.00;;;;;;5019203;28;45370;-55
2022/11/30 15:22:56;;;;;;;1.70;1.50;;;24.90;42.10;;;;;;5009783;28;45275;-57
2022/11/30 15:25:23;;;;;;;1.45;1.27;;;24.90;42.10;;;;;;4992454;28;44743;-54
2022/11/30 15:27:49;;;;;;;1.77;1.60;;;24.90;42.20;;;;;;4970656;28;45878;-52
2022/11/30 15:30:15;;;;;;;1.45;1.35;;;24.90;42.20;;;;;;4991541;28;45498;-53
2022/11/30 15:32:46;;;;;;;1.67;1.55;;;25.00;42.20;;;;;;4974880;28;45233;-54
2022/11/30 15:35:19;;;;;;;1.63;1.42;;;25.00;42.20;;;;;;4976240;28;44745;-61
2022/11/30 15:37:45;;;;;;;1.60;1.40;;;25.10;42.10;;;;;;4987021;28;45649;-55
2022/11/30 15:40:15;;;;;;;1.52;1.33;;;25.10;42.10;;;;;;4986695;28;45218;-59
2022/11/30 15:42:40;;;;;;;1.75;1.58;;;25.10;42.10;;;;;;4986071;28;45699;-54
2022/11/30 15:45:21;;;;;;;1.75;1.50;;;25.10;42.10;;;;;;4988686;28;44748;-52
2022/11/30 15:47:46;;;;;;;1.73;1.63;;;25.20;42.10;;;;;;4994754;28;46003;-58
2022/11/30 15:50:27;;;;;;;1.25;1.15;;;25.20;42.10;;;;;;5006378;28;45085;-57
2022/11/30 15:52:54;;;;;;;1.50;1.40;;;25.20;42.00;;;;;;5003705;28;45003;-50
2022/11/30 15:55:39;;;;;;;1.77;1.50;;;25.20;42.10;;;;;;5006988;28;45180;-52
2022/11/30 15:58:04;;;;;;;1.83;1.73;;;25.20;42.00;;;;;;5002332;28;46053;-57
2022/11/30 16:00:30;;;;;;;1.60;1.27;;;25.20;42.10;;;;;;4995732;28;46229;-57
2022/11/30 16:03:09;;;;;;;1.92;1.27;;;25.10;42.10;;;;;;5004487;28;45272;-56
2022/11/30 16:05:34;;;;;;;2.05;1.40;;;25.20;42.10;;;;;;4997826;28;45943;-56
2022/11/30 16:08:02;;;;;;;1.67;1.33;;;25.10;42.10;;;;;;5001794;28;47126;-51
2022/11/30 16:10:29;;;;;;;3.55;1.30;;;25.10;42.10;;;;;;4973892;28;45233;-54
2022/11/30 16:12:55;;;;;;;1.40;1.30;;;25.10;42.10;;;;;;5001141;28;45195;-59
2022/11/30 16:15:23;;;;;;;1.40;1.30;;;25.10;42.10;;;;;;4972821;28;45416;-57
2022/11/30 16:17:49;;;;;;;1.40;1.30;;;25.10;42.20;;;;;;4985970;28;45773;-53
2022/11/30 16:20:15;;;;;;;1.85;1.48;;;25.10;42.10;;;;;;4998099;28;44720;-53
2022/11/30 16:22:41;;;;;;;2.00;1.80;;;25.10;42.20;;;;;;4989208;28;45222;-54
2022/11/30 16:25:14;;;;;;;1.92;1.73;;;25.10;42.10;;;;;;4987581;28;45569;-52
2022/11/30 16:27:40;;;;;;;;;;;25.00;42.20;;;;;;5013427;28;46185;-52
2022/11/30 16:30:06;;;;;;;1.83;1.45;;;24.90;42.10;;;;;;4996177;28;45179;-53
2022/11/30 16:32:32;;;;;;;3.72;1.60;;;24.80;42.50;;;;;;5012042;28;45600;-53
2022/11/30 16:34:57;;;;;;;1.70;1.60;;;24.70;42.60;;;;;;5000298;28;45050;-56
2022/11/30 16:37:23;;;;;;;2.58;1.67;;;24.50;42.70;;;;;;4994500;28;46186;-56
2022/11/30 16:39:49;;;;;;;1.80;1.33;;;24.40;42.80;;;;;;5001391;28;44902;-50
2022/11/30 16:42:14;;;;;;;2.50;1.42;;;24.40;43.10;;;;;;5006451;28;45146;-51
2022/11/30 16:44:40;;;;;;;1.95;1.65;;;24.30;43.20;;;;;;5002867;28;45145;-51
2022/11/30 16:47:05;;;;;;;1.85;1.50;;;24.20;43.30;;;;;;5003587;28;45285;-53
2022/11/30 16:49:31;;;;;;;1.90;1.52;;;24.10;43.40;;;;;;4999988;28;45144;-57
2022/11/30 16:52:16;;;;;;;2.15;1.95;;;24.10;43.50;;;;;;4981275;28;45114;-52
2022/11/30 16:54:42;;;;;;;2.08;1.55;;;23.90;43.60;;;;;;5000960;28;45357;-48
2022/11/30 16:57:07;;;;;;;1.60;1.45;;;23.80;43.70;;;;;;5011256;28;46397;-56
2022/11/30 16:59:33;;;;;;;2.10;1.83;;;23.80;43.80;;;;;;4997645;28;45268;-53
2022/11/30 17:01:58;;;;;;;1.67;1.50;;;23.70;43.80;;;;;;4981746;28;45083;-52
2022/11/30 17:04:25;;;;;;;1.80;1.70;;;23.70;43.90;;;;;;5005066;28;45698;-53
2022/11/30 17:06:51;;;;;;;1.85;1.60;;;23.60;44.00;;;;;;4969766;28;45490;-56
2022/11/30 17:09:17;;;;;;;1.60;1.50;;;23.50;44.00;;;;;;4999502;28;44736;-48
2022/11/30 17:11:44;;;;;;;1.50;1.40;;;23.50;44.10;;;;;;4984702;28;45205;-52
2022/11/30 17:14:11;;;;;;;2.00;1.80;;;23.40;44.20;;;;;;5003893;28;46952;-51
2022/11/30 17:16:36;;;;;;;1.90;1.75;;;23.30;44.30;;;;;;4985483;28;45485;-50